AFL1306 UHSS-UHSN
Flight info
| Callsign | AFL1306 |
|---|---|
| Flight time | N/A |
| Altitude | 21000 |
| Route | LEKPA3 LEKPA B933 VIBIR B948 LANRI B933 KESIK KESIK1G |
| Aircraft | AN24/M-SDFGR/S |
Departure
| Time | 2026-05-05 06:42 |
|---|---|
| Airport | Yuzhno-Sakhalinsk International Airport (UHSS) |
Arrival
| Time | N/A |
|---|---|
| Airport | Nogliki Airport (UHSN) |
| Time | Latitude | Longitude | Altitude | Speed | Heading |
|---|---|---|---|---|---|
| 2026-05-05 06:29 | 46.88829 | 142.72273 | 70 ft | 0 kts | 2° |
| 2026-05-05 06:38 | 46.88859 | 142.72263 | 69 ft | 8 kts | 340° |
| 2026-05-05 06:38 | 46.88866 | 142.72260 | 69 ft | 0 kts | 337° |
| 2026-05-05 06:39 | 46.88867 | 142.72258 | 69 ft | 1 kts | 338° |
| 2026-05-05 06:39 | 46.88895 | 142.72195 | 67 ft | 8 kts | 275° |
| 2026-05-05 06:39 | 46.88925 | 142.72113 | 65 ft | 11 kts | 325° |
| 2026-05-05 06:40 | 46.89024 | 142.72032 | 62 ft | 17 kts | 323° |
| 2026-05-05 06:40 | 46.89081 | 142.71928 | 59 ft | 9 kts | 288° |
| 2026-05-05 06:40 | 46.89091 | 142.71864 | 57 ft | 3 kts | 271° |
| 2026-05-05 06:40 | 46.89090 | 142.71803 | 55 ft | 15 kts | 266° |
| 2026-05-05 06:41 | 46.89051 | 142.71742 | 54 ft | 0 kts | 182° |
| 2026-05-05 06:41 | 46.88995 | 142.71741 | 54 ft | 39 kts | 181° |
| 2026-05-05 06:42 | 46.88438 | 142.71725 | 56 ft | 114 kts | 181° |
| 2026-05-05 06:42 | 46.87544 | 142.71668 | 317 ft | 139 kts | 185° |
| 2026-05-05 06:42 | 46.86556 | 142.71549 | 780 ft | 143 kts | 187° |
| 2026-05-05 06:42 | 46.85578 | 142.71374 | 1215 ft | 143 kts | 189° |
| 2026-05-05 06:43 | 46.84615 | 142.71001 | 1574 ft | 147 kts | 208° |
| 2026-05-05 06:43 | 46.84060 | 142.69818 | 1999 ft | 152 kts | 255° |
| 2026-05-05 06:43 | 46.84280 | 142.68295 | 2400 ft | 162 kts | 300° |
| 2026-05-05 06:43 | 46.85256 | 142.67514 | 2801 ft | 174 kts | 349° |
| 2026-05-05 06:44 | 46.86496 | 142.67633 | 3142 ft | 179 kts | 6° |
| 2026-05-05 06:44 | 46.87692 | 142.67955 | 3618 ft | 176 kts | 12° |
| 2026-05-05 06:44 | 46.88886 | 142.68529 | 3886 ft | 185 kts | 27° |
| 2026-05-05 06:44 | 46.89986 | 142.69467 | 4339 ft | 181 kts | 37° |
| 2026-05-05 06:45 | 46.90888 | 142.70750 | 4600 ft | 190 kts | 45° |
| 2026-05-05 06:45 | 46.91883 | 142.72125 | 4739 ft | 205 kts | 36° |
| 2026-05-05 06:45 | 46.93232 | 142.72868 | 5035 ft | 209 kts | 4° |
| 2026-05-05 06:45 | 46.94655 | 142.72946 | 5572 ft | 203 kts | 355° |
| 2026-05-05 06:46 | 46.96059 | 142.72867 | 6066 ft | 201 kts | 355° |
| 2026-05-05 06:46 | 46.97472 | 142.72778 | 6431 ft | 206 kts | 354° |
| 2026-05-05 06:46 | 46.98909 | 142.72632 | 6786 ft | 210 kts | 352° |
| 2026-05-05 06:46 | 47.00373 | 142.72427 | 7103 ft | 216 kts | 351° |
| 2026-05-05 06:47 | 47.01895 | 142.72252 | 7386 ft | 223 kts | 355° |
| 2026-05-05 06:47 | 47.03451 | 142.72131 | 7682 ft | 228 kts | 353° |
| 2026-05-05 06:47 | 47.05029 | 142.72031 | 7991 ft | 228 kts | 360° |
| 2026-05-05 06:47 | 47.06596 | 142.72121 | 8321 ft | 224 kts | 355° |
| 2026-05-05 06:48 | 47.08152 | 142.72078 | 8635 ft | 222 kts | 357° |
| 2026-05-05 06:48 | 47.09684 | 142.72084 | 8904 ft | 222 kts | 358° |
| 2026-05-05 06:48 | 47.11242 | 142.72108 | 9130 ft | 224 kts | 358° |
| 2026-05-05 06:48 | 47.12808 | 142.72116 | 9318 ft | 227 kts | 357° |
| 2026-05-05 06:49 | 47.14395 | 142.72095 | 9513 ft | 230 kts | 356° |
| 2026-05-05 06:49 | 47.16004 | 142.72111 | 9679 ft | 233 kts | 358° |
| 2026-05-05 06:49 | 47.17675 | 142.72104 | 9649 ft | 247 kts | 357° |
| 2026-05-05 06:49 | 47.19423 | 142.72055 | 9736 ft | 257 kts | 358° |
| 2026-05-05 06:50 | 47.21250 | 142.72130 | 9731 ft | 269 kts | 360° |
| 2026-05-05 06:50 | 47.23145 | 142.72194 | 9591 ft | 281 kts | 359° |
| 2026-05-05 06:50 | 47.25098 | 142.72212 | 9717 ft | 281 kts | 358° |
| 2026-05-05 06:50 | 47.27059 | 142.72201 | 9744 ft | 285 kts | 357° |
| 2026-05-05 06:51 | 47.29088 | 142.72064 | 9633 ft | 291 kts | 350° |
| 2026-05-05 06:51 | 47.31059 | 142.71542 | 9711 ft | 290 kts | 347° |
| 2026-05-05 06:51 | 47.33045 | 142.70953 | 9686 ft | 292 kts | 346° |
| 2026-05-05 06:51 | 47.35022 | 142.70337 | 9687 ft | 294 kts | 347° |
| 2026-05-05 06:52 | 47.37038 | 142.69725 | 9705 ft | 294 kts | 346° |
| 2026-05-05 06:52 | 47.39012 | 142.69092 | 9834 ft | 290 kts | 346° |
| 2026-05-05 06:52 | 47.40967 | 142.68559 | 10085 ft | 284 kts | 347° |
| 2026-05-05 06:52 | 47.42881 | 142.68010 | 10359 ft | 277 kts | 346° |
| 2026-05-05 06:53 | 47.44755 | 142.67462 | 10635 ft | 273 kts | 347° |
| 2026-05-05 06:53 | 47.46640 | 142.66922 | 10845 ft | 276 kts | 346° |
| 2026-05-05 06:53 | 47.48336 | 142.66389 | 10943 ft | 277 kts | 346° |
| 2026-05-05 06:53 | 47.50255 | 142.65918 | 11035 ft | 280 kts | 353° |
| 2026-05-05 06:54 | 47.52188 | 142.66135 | 11033 ft | 287 kts | 13° |
| 2026-05-05 06:54 | 47.53897 | 142.67482 | 10784 ft | 302 kts | 41° |
| 2026-05-05 06:54 | 47.54996 | 142.70132 | 10412 ft | 313 kts | 75° |
| 2026-05-05 06:54 | 47.54856 | 142.73334 | 10224 ft | 311 kts | 114° |
| 2026-05-05 06:55 | 47.53490 | 142.75607 | 10128 ft | 294 kts | 153° |
| 2026-05-05 06:55 | 47.51539 | 142.75842 | 9026 ft | 305 kts | 202° |
| 2026-05-05 06:55 | 47.50322 | 142.73370 | 6748 ft | 347 kts | 263° |
| 2026-05-05 06:55 | 47.51339 | 142.70354 | 5734 ft | 340 kts | 325° |
| 2026-05-05 06:56 | 47.53532 | 142.70311 | 4699 ft | 334 kts | 29° |
| 2026-05-05 06:56 | 47.54637 | 142.73100 | 3025 ft | 326 kts | 89° |